createdAt,value
2023-03-16T00:02:20.061Z,97283.75
2023-03-16T00:04:46.477Z,97282.72
2023-03-16T00:07:12.894Z,97285.41
2023-03-16T00:09:39.272Z,97290.31
2023-03-16T00:12:05.655Z,97283.38
2023-03-16T00:14:32.029Z,97286.44
2023-03-16T00:16:58.724Z,97286.44
2023-03-16T00:19:25.080Z,97287.28
2023-03-16T00:21:55.289Z,97279.44
2023-03-16T00:24:21.662Z,97281.28
2023-03-16T00:26:48.047Z,97284.34
2023-03-16T00:29:14.371Z,97287.00
2023-03-16T00:31:40.836Z,97294.75
2023-03-16T00:34:07.242Z,97294.50
2023-03-16T00:36:33.649Z,97296.13
2023-03-16T00:39:00.014Z,97299.84
2023-03-16T00:41:26.464Z,97290.63
2023-03-16T00:43:52.847Z,97303.34
2023-03-16T00:46:19.322Z,97301.88
2023-03-16T00:48:45.706Z,97297.16
2023-03-16T00:51:12.095Z,97305.28
2023-03-16T00:53:38.540Z,97301.41
2023-03-16T00:56:04.936Z,97293.78
2023-03-16T00:58:31.294Z,97301.59
2023-03-16T01:00:57.698Z,97301.59
2023-03-16T01:03:24.216Z,97301.41
2023-03-16T01:05:50.577Z,97292.38
2023-03-16T01:08:22.239Z,97296.88
2023-03-16T01:10:48.597Z,97297.06
2023-03-16T01:13:14.953Z,97295.59
2023-03-16T01:15:41.442Z,97297.63
2023-03-16T01:18:07.804Z,97289.59
2023-03-16T01:20:34.179Z,97285.94
2023-03-16T01:23:00.500Z,97274.19
2023-03-16T01:25:26.849Z,97273.28
2023-03-16T01:27:53.301Z,97267.91
2023-03-16T01:30:20.873Z,97269.69
2023-03-16T01:32:47.311Z,97263.66
2023-03-16T01:35:13.797Z,97263.84
2023-03-16T01:37:40.133Z,97266.34
2023-03-16T01:40:06.524Z,97264.22
2023-03-16T01:42:32.865Z,97256.53
2023-03-16T01:44:59.262Z,97253.06
2023-03-16T01:47:25.648Z,97253.22
2023-03-16T01:49:52.007Z,97257.78
2023-03-16T01:52:18.352Z,97253.06
2023-03-16T01:54:44.752Z,97247.06
2023-03-16T01:57:11.104Z,97244.28
2023-03-16T01:59:37.460Z,97234.16
2023-03-16T02:02:03.854Z,97222.53
2023-03-16T02:04:30.311Z,97227.22
2023-03-16T02:06:56.923Z,97218.19
2023-03-16T02:12:13.657Z,97215.91
2023-03-16T02:14:40.054Z,97224.19
2023-03-16T02:17:06.443Z,97223.34
2023-03-16T02:19:32.808Z,97216.72
2023-03-16T02:21:59.134Z,97213.03
2023-03-16T02:24:25.511Z,97212.19
2023-03-16T02:26:51.907Z,97214.66
2023-03-16T02:29:18.300Z,97215.53
2023-03-16T02:31:44.643Z,97213.22
2023-03-16T02:34:11.017Z,97212.19
2023-03-16T02:36:37.367Z,97215.22
2023-03-16T02:39:03.806Z,97215.59
2023-03-16T02:41:30.231Z,97222.63
2023-03-16T02:43:56.625Z,97218.16
2023-03-16T02:46:23.060Z,97207.41
2023-03-16T02:48:49.464Z,97213.38
2023-03-16T02:51:15.884Z,97208.31
2023-03-16T02:53:42.297Z,97206.47
2023-03-16T02:56:08.676Z,97201.13
2023-03-16T02:58:35.045Z,97206.66
2023-03-16T03:01:01.470Z,97206.84
2023-03-16T03:03:27.907Z,97194.66
2023-03-16T03:05:54.272Z,97203.63
2023-03-16T03:08:20.651Z,97188.44
2023-03-16T03:10:47.032Z,97196.78
2023-03-16T03:13:13.483Z,97200.88
2023-03-16T03:15:39.916Z,97206.94
2023-03-16T03:18:06.375Z,97206.94
2023-03-16T03:20:32.809Z,97209.84
2023-03-16T03:22:59.180Z,97210.78
2023-03-16T03:25:25.553Z,97206.56
2023-03-16T03:27:51.995Z,97208.78
2023-03-16T03:30:18.464Z,97216.78
2023-03-16T03:32:44.894Z,97222.13
2023-03-16T03:35:11.265Z,97217.78
2023-03-16T03:37:37.716Z,97231.34
2023-03-16T03:40:04.120Z,97229.84
2023-03-16T03:42:30.473Z,97229.03
2023-03-16T03:44:56.841Z,97229.22
2023-03-16T03:47:23.197Z,97227.09
2023-03-16T03:49:49.530Z,97231.97
2023-03-16T03:52:15.879Z,97227.25
2023-03-16T03:54:42.231Z,97237.94
2023-03-16T03:57:08.658Z,97239.25
2023-03-16T03:59:34.999Z,97238.91
2023-03-16T04:02:01.508Z,97235.75
2023-03-16T04:04:28.041Z,97235.28
2023-03-16T04:06:54.385Z,97229.09
2023-03-16T04:09:22.044Z,97236.00
2023-03-16T04:11:48.455Z,97233.53
2023-03-16T04:14:15.931Z,97221.81
2023-03-16T04:16:42.354Z,97214.38
2023-03-16T04:19:08.776Z,97216.84
2023-03-16T04:21:35.158Z,97214.00
2023-03-16T04:24:01.605Z,97213.69
2023-03-16T04:26:27.997Z,97207.34
2023-03-16T04:28:54.364Z,97223.38
2023-03-16T04:31:20.764Z,97217.66
2023-03-16T04:33:47.264Z,97225.06
2023-03-16T04:36:13.727Z,97231.75
2023-03-16T04:38:40.125Z,97238.75
2023-03-16T04:41:06.555Z,97250.09
2023-03-16T04:43:32.907Z,97248.25
2023-03-16T04:45:59.348Z,97246.50
2023-03-16T04:48:25.779Z,97249.97
2023-03-16T04:50:52.229Z,97256.44
2023-03-16T04:53:18.624Z,97249.91
2023-03-16T04:55:45.054Z,97246.88
2023-03-16T04:58:11.496Z,97251.41
2023-03-16T05:00:37.866Z,97244.28
2023-03-16T05:03:04.361Z,97246.13
2023-03-16T05:05:30.942Z,97242.97
2023-03-16T05:07:57.357Z,97238.66
2023-03-16T05:10:23.739Z,97244.50
2023-03-16T05:12:50.142Z,97249.28
2023-03-16T05:15:16.544Z,97256.59
2023-03-16T05:17:43.055Z,97262.56
2023-03-16T05:20:09.523Z,97265.25
2023-03-16T05:22:35.953Z,97269.75
2023-03-16T05:25:02.464Z,97277.28
2023-03-16T05:27:28.902Z,97274.63
2023-03-16T05:29:55.321Z,97263.75
2023-03-16T05:32:21.778Z,97251.69
2023-03-16T05:34:48.223Z,97243.06
2023-03-16T05:37:14.619Z,97236.88
2023-03-16T05:39:41.029Z,97225.53
2023-03-16T05:42:07.423Z,97230.88
2023-03-16T05:44:34.040Z,97248.72
2023-03-16T05:47:00.462Z,97242.28
2023-03-16T05:49:26.961Z,97245.97
2023-03-16T05:51:53.325Z,97247.44
2023-03-16T05:54:19.655Z,97240.81
2023-03-16T05:56:46.157Z,97229.09
2023-03-16T05:59:12.535Z,97230.31
2023-03-16T06:01:38.930Z,97227.63
2023-03-16T06:04:05.391Z,97228.94
2023-03-16T06:06:31.848Z,97221.56
2023-03-16T06:08:58.287Z,97223.25
2023-03-16T06:11:24.742Z,97212.19
2023-03-16T06:13:51.100Z,97208.97
2023-03-16T06:16:17.536Z,97215.97
2023-03-16T06:18:43.949Z,97218.16
2023-03-16T06:21:10.425Z,97216.34
2023-03-16T06:23:36.829Z,97218.00
2023-03-16T06:26:03.261Z,97225.66
2023-03-16T06:28:29.583Z,97242.88
2023-03-16T06:30:55.976Z,97243.72
2023-03-16T06:33:22.301Z,97243.75
2023-03-16T06:35:48.683Z,97235.13
2023-03-16T06:38:15.162Z,97211.84
2023-03-16T06:40:41.535Z,97206.19
2023-03-16T06:43:07.912Z,97205.31
2023-03-16T06:45:34.308Z,97198.78
2023-03-16T06:48:00.714Z,97190.66
2023-03-16T06:50:27.345Z,97188.91
2023-03-16T06:52:53.889Z,97192.25
2023-03-16T06:55:20.288Z,97201.75
2023-03-16T06:57:46.672Z,97210.59
2023-03-16T07:00:13.105Z,97206.91
2023-03-16T07:02:39.521Z,97208.41
2023-03-16T07:05:05.978Z,97206.91
2023-03-16T07:07:32.403Z,97207.38
2023-03-16T07:09:58.737Z,97205.63
2023-03-16T07:12:25.054Z,97207.56
2023-03-16T07:14:53.962Z,97214.19
2023-03-16T07:17:20.561Z,97216.03
2023-03-16T07:19:47.074Z,97214.63
2023-03-16T07:22:13.431Z,97218.16
2023-03-16T07:24:39.853Z,97218.03
2023-03-16T07:27:06.319Z,97232.41
2023-03-16T07:29:32.729Z,97227.66
2023-03-16T07:31:59.222Z,97225.97
2023-03-16T07:34:25.774Z,97232.66
2023-03-16T07:36:52.245Z,97228.75
2023-03-16T07:39:18.665Z,97221.59
2023-03-16T07:41:45.109Z,97215.94
2023-03-16T07:44:11.505Z,97224.34
2023-03-16T07:46:37.935Z,97226.75
2023-03-16T07:49:04.387Z,97231.91
2023-03-16T07:51:30.784Z,97238.97
2023-03-16T07:53:57.445Z,97243.28
2023-03-16T07:56:23.965Z,97237.78
2023-03-16T07:58:50.310Z,97227.97
2023-03-16T08:01:16.684Z,97224.25
2023-03-16T08:03:43.180Z,97227.50
2023-03-16T08:06:09.608Z,97229.56
2023-03-16T08:08:35.969Z,97226.09
2023-03-16T08:11:02.373Z,97237.88
2023-03-16T08:13:28.844Z,97233.25
2023-03-16T08:15:55.333Z,97229.81
2023-03-16T08:18:21.728Z,97234.63
2023-03-16T08:20:48.113Z,97233.34
2023-03-16T08:23:14.513Z,97238.13
2023-03-16T08:25:40.981Z,97247.00
2023-03-16T08:28:07.371Z,97238.53
2023-03-16T08:30:33.711Z,97235.75
2023-03-16T08:33:00.136Z,97231.00
2023-03-16T08:35:26.575Z,97234.06
2023-03-16T08:37:53.020Z,97230.44
2023-03-16T08:40:19.382Z,97223.16
2023-03-16T08:42:45.775Z,97232.13
2023-03-16T08:45:14.184Z,97226.69
2023-03-16T08:47:40.833Z,97218.13
2023-03-16T08:50:07.228Z,97223.72
2023-03-16T08:52:33.594Z,97223.81
2023-03-16T08:55:03.712Z,97229.09
2023-03-16T08:57:30.532Z,97223.63
2023-03-16T08:59:56.894Z,97223.81
2023-03-16T09:02:23.272Z,97219.56
2023-03-16T09:04:49.716Z,97222.44
2023-03-16T09:07:16.122Z,97220.00
2023-03-16T09:09:42.484Z,97220.69
2023-03-16T09:12:08.839Z,97221.78
2023-03-16T09:14:35.270Z,97219.28
2023-03-16T09:17:01.644Z,97209.88
2023-03-16T09:19:30.637Z,97206.72
2023-03-16T09:22:01.304Z,97197.31
2023-03-16T09:24:27.653Z,97201.94
2023-03-16T09:26:54.052Z,97200.84
2023-03-16T09:29:20.507Z,97198.91
2023-03-16T09:31:46.941Z,97207.84
2023-03-16T09:34:13.378Z,97201.75
2023-03-16T09:36:39.799Z,97210.94
2023-03-16T09:39:06.252Z,97205.66
2023-03-16T09:41:32.653Z,97202.41
2023-03-16T09:43:59.033Z,97197.78
2023-03-16T09:46:25.447Z,97188.53
2023-03-16T09:48:51.797Z,97192.16
2023-03-16T09:51:19.226Z,97183.94
2023-03-16T09:53:46.764Z,97179.47
2023-03-16T09:56:13.449Z,97176.81
2023-03-16T09:58:39.878Z,97182.09
2023-03-16T10:01:06.520Z,97169.47
2023-03-16T10:03:32.936Z,97175.78
2023-03-16T10:05:59.423Z,97178.09
2023-03-16T10:08:25.834Z,97176.53
2023-03-16T10:10:52.254Z,97170.44
2023-03-16T10:13:18.678Z,97164.31
2023-03-16T10:15:45.070Z,97158.50
2023-03-16T10:18:13.401Z,97163.91
2023-03-16T10:20:39.960Z,97169.28
2023-03-16T10:23:06.326Z,97170.66
2023-03-16T10:25:32.761Z,97169.59
2023-03-16T10:27:59.171Z,97171.44
2023-03-16T10:30:25.628Z,97186.41
2023-03-16T10:32:52.122Z,97184.56
2023-03-16T10:35:18.515Z,97177.81
2023-03-16T10:37:44.866Z,97182.34
2023-03-16T10:40:11.352Z,97178.69
2023-03-16T10:42:37.802Z,97180.38
2023-03-16T10:45:04.204Z,97179.88
2023-03-16T10:47:30.597Z,97180.09
2023-03-16T10:49:56.995Z,97179.75
2023-03-16T10:52:23.375Z,97191.56
2023-03-16T10:54:49.823Z,97177.78
2023-03-16T10:57:16.198Z,97181.78
2023-03-16T10:59:42.665Z,97182.66
2023-03-16T11:02:09.069Z,97184.34
2023-03-16T11:04:35.523Z,97186.63
2023-03-16T11:07:01.984Z,97191.41
2023-03-16T11:09:28.479Z,97190.13
2023-03-16T11:11:54.902Z,97186.81
2023-03-16T11:14:21.264Z,97181.16
2023-03-16T11:16:47.809Z,97183.44
2023-03-16T11:19:14.198Z,97169.72
2023-03-16T11:21:40.573Z,97167.44
2023-03-16T11:24:06.946Z,97163.09
2023-03-16T11:26:33.313Z,97161.09
2023-03-16T11:28:59.671Z,97162.97
2023-03-16T11:31:26.171Z,97163.19
2023-03-16T11:33:52.573Z,97161.59
2023-03-16T11:36:19.015Z,97162.25
2023-03-16T11:38:45.446Z,97159.41
2023-03-16T11:41:11.864Z,97161.06
2023-03-16T11:43:38.226Z,97155.88
2023-03-16T11:46:05.987Z,97151.31
2023-03-16T11:48:32.553Z,97144.75
2023-03-16T11:50:58.962Z,97144.50
2023-03-16T11:53:25.303Z,97131.88
2023-03-16T11:55:51.650Z,97139.47
2023-03-16T11:58:18.128Z,97140.50
2023-03-16T12:00:46.039Z,97150.16
2023-03-16T12:03:12.474Z,97152.03
2023-03-16T12:05:38.965Z,97143.34
2023-03-16T12:08:05.334Z,97146.44
2023-03-16T12:10:31.716Z,97142.34
2023-03-16T12:12:58.142Z,97141.06
2023-03-16T12:15:24.508Z,97135.50
2023-03-16T12:17:50.950Z,97139.84
2023-03-16T12:20:19.411Z,97139.44
2023-03-16T12:22:45.929Z,97130.31
2023-03-16T12:25:12.349Z,97132.63
2023-03-16T12:27:38.701Z,97131.91
2023-03-16T12:30:05.165Z,97126.66
2023-03-16T12:32:31.648Z,97125.59
2023-03-16T12:34:58.035Z,97121.25
2023-03-16T12:37:24.519Z,97114.34
2023-03-16T12:39:50.892Z,97120.84
2023-03-16T12:42:17.328Z,97120.84
2023-03-16T12:44:43.761Z,97118.81
2023-03-16T12:47:10.147Z,97123.53
2023-03-16T12:49:36.586Z,97126.59
2023-03-16T12:52:03.050Z,97119.09
2023-03-16T12:54:29.521Z,97107.50
2023-03-16T12:56:56.026Z,97109.59
2023-03-16T12:59:23.887Z,97103.47
2023-03-16T13:01:50.282Z,97097.84
2023-03-16T13:04:16.904Z,97098.25
2023-03-16T13:06:43.337Z,97100.47
2023-03-16T13:09:09.757Z,97093.09
2023-03-16T13:11:36.318Z,97104.63
2023-03-16T13:14:02.701Z,97098.66
2023-03-16T13:16:29.136Z,97096.44
2023-03-16T13:18:57.967Z,97102.00
2023-03-16T13:21:24.395Z,97105.63
2023-03-16T13:23:50.770Z,97098.25
2023-03-16T13:26:17.227Z,97102.63
2023-03-16T13:28:43.710Z,97099.94
2023-03-16T13:31:10.055Z,97099.53
2023-03-16T13:33:36.438Z,97103.31
2023-03-16T13:36:02.928Z,97097.16
2023-03-16T13:38:29.372Z,97096.53
2023-03-16T13:40:55.842Z,97103.41
2023-03-16T13:43:22.212Z,97100.13
2023-03-16T13:45:48.652Z,97103.88
2023-03-16T13:48:15.113Z,97107.44
2023-03-16T13:50:41.577Z,97097.25
2023-03-16T13:53:07.987Z,97095.41
2023-03-16T13:55:34.401Z,97084.72
2023-03-16T13:58:00.853Z,97078.78
2023-03-16T14:00:27.723Z,97073.03
2023-03-16T14:02:54.312Z,97062.72
2023-03-16T14:05:20.725Z,97061.69
2023-03-16T14:07:47.111Z,97061.31
2023-03-16T14:10:13.708Z,97063.38
2023-03-16T14:12:40.136Z,97063.16
2023-03-16T14:15:06.506Z,97057.16
2023-03-16T14:17:32.875Z,97054.09
2023-03-16T14:19:59.232Z,97047.50
2023-03-16T14:22:25.606Z,97051.44
2023-03-16T14:24:51.992Z,97043.81
2023-03-16T14:27:18.555Z,97047.53
2023-03-16T14:29:47.221Z,97043.19
2023-03-16T14:32:13.576Z,97038.00
2023-03-16T14:34:40.012Z,97036.34
2023-03-16T14:37:06.609Z,97037.19
2023-03-16T14:39:33.055Z,97032.03
2023-03-16T14:41:59.498Z,97036.56
2023-03-16T14:44:25.868Z,97043.59
2023-03-16T14:46:52.331Z,97041.53
2023-03-16T14:49:18.697Z,97037.63
2023-03-16T14:51:45.121Z,97044.44
2023-03-16T14:54:11.493Z,97035.97
2023-03-16T14:56:37.879Z,97038.63
2023-03-16T14:59:04.230Z,97038.81
2023-03-16T15:01:30.676Z,97036.34
2023-03-16T15:03:57.085Z,97036.78
2023-03-16T15:06:23.457Z,97030.56
2023-03-16T15:08:49.841Z,97033.44
2023-03-16T15:11:16.208Z,97026.00
2023-03-16T15:13:42.602Z,97023.94
2023-03-16T15:16:09.008Z,97022.06
2023-03-16T15:18:35.494Z,97007.59
2023-03-16T15:21:01.885Z,97011.47
2023-03-16T15:23:28.303Z,96997.03
2023-03-16T15:25:54.744Z,96994.94
2023-03-16T15:28:21.128Z,96999.03
2023-03-16T15:30:47.495Z,96989.09
2023-03-16T15:33:13.947Z,96988.91
2023-03-16T15:35:40.502Z,96982.50
2023-03-16T15:38:06.889Z,96973.41
2023-03-16T15:40:33.235Z,96966.94
2023-03-16T15:42:59.702Z,96964.69
2023-03-16T15:45:26.127Z,96948.47
2023-03-16T15:47:52.505Z,96944.97
2023-03-16T15:50:18.878Z,96939.94
2023-03-16T15:52:45.311Z,96938.25
2023-03-16T15:55:14.420Z,96938.97
2023-03-16T15:57:40.890Z,96940.56
2023-03-16T16:00:07.297Z,96948.97
2023-03-16T16:02:33.706Z,96945.78
2023-03-16T16:05:00.135Z,96950.59
2023-03-16T16:07:26.619Z,96943.56
2023-03-16T16:09:53.018Z,96948.63
2023-03-16T16:12:19.419Z,96938.00
2023-03-16T16:14:45.864Z,96936.88
2023-03-16T16:17:12.295Z,96940.28
2023-03-16T16:19:38.708Z,96926.72
2023-03-16T16:22:05.078Z,96927.09
2023-03-16T16:24:31.597Z,96928.06
2023-03-16T16:26:57.990Z,96932.50
2023-03-16T16:29:24.388Z,96919.66
2023-03-16T16:31:50.835Z,96920.81
2023-03-16T16:34:17.236Z,96923.34
2023-03-16T16:36:43.717Z,96918.00
2023-03-16T16:39:10.105Z,96916.16
2023-03-16T16:41:36.465Z,96910.28
2023-03-16T16:44:02.835Z,96908.28
2023-03-16T16:46:29.285Z,96912.47
2023-03-16T16:48:55.730Z,96908.56
2023-03-16T16:51:22.094Z,96905.69
2023-03-16T16:53:48.490Z,96907.69
2023-03-16T16:56:14.901Z,96909.63
2023-03-16T16:58:41.291Z,96905.00
2023-03-16T17:01:07.760Z,96912.13
2023-03-16T17:03:34.212Z,96906.16
2023-03-16T17:06:00.641Z,96902.13
2023-03-16T17:08:27.036Z,96908.81
2023-03-16T17:10:53.470Z,96904.75
2023-03-16T17:13:19.819Z,96915.84
2023-03-16T17:15:46.233Z,96914.78
2023-03-16T17:18:12.551Z,96915.50
2023-03-16T17:20:38.923Z,96907.03
2023-03-16T17:23:05.291Z,96920.25
2023-03-16T17:25:34.735Z,96914.91
2023-03-16T17:28:01.125Z,96911.22
2023-03-16T17:30:27.570Z,96913.13
2023-03-16T17:32:54.051Z,96927.25
2023-03-16T17:35:20.482Z,96913.53
2023-03-16T17:37:46.855Z,96914.53
2023-03-16T17:40:16.060Z,96913.84
2023-03-16T17:42:42.707Z,96911.31
2023-03-16T17:45:09.145Z,96905.69
2023-03-16T17:47:35.621Z,96914.91
2023-03-16T17:50:01.996Z,96909.56
2023-03-16T17:52:28.418Z,96906.75
2023-03-16T17:54:54.802Z,96904.31
2023-03-16T17:57:21.274Z,96916.59
2023-03-16T17:59:47.792Z,96903.78
2023-03-16T18:02:14.173Z,96904.06
2023-03-16T18:04:40.509Z,96912.00
2023-03-16T18:07:06.851Z,96899.81
2023-03-16T18:09:33.215Z,96905.44
2023-03-16T18:11:59.561Z,96904.81
2023-03-16T18:14:26.098Z,96912.53
2023-03-16T18:16:52.575Z,96914.63
2023-03-16T18:19:20.923Z,96914.22
2023-03-16T18:21:47.377Z,96927.69
2023-03-16T18:24:13.786Z,96924.47
2023-03-16T18:26:40.221Z,96926.13
2023-03-16T18:29:06.612Z,96920.53
2023-03-16T18:31:33.016Z,96923.22
2023-03-16T18:33:59.382Z,96915.94
2023-03-16T18:36:25.745Z,96918.06
2023-03-16T18:38:52.108Z,96914.53
2023-03-16T18:41:18.505Z,96919.09
2023-03-16T18:43:44.884Z,96920.97
2023-03-16T18:46:11.258Z,96923.88
2023-03-16T18:48:37.707Z,96919.53
2023-03-16T18:51:04.057Z,96914.94
2023-03-16T18:53:30.431Z,96920.34
2023-03-16T18:55:57.628Z,96910.63
2023-03-16T18:58:25.500Z,96915.59
2023-03-16T19:01:06.226Z,96922.25
2023-03-16T19:03:32.673Z,96932.19
2023-03-16T19:05:59.132Z,96929.50
2023-03-16T19:08:25.575Z,96927.25
2023-03-16T19:10:51.992Z,96913.16
2023-03-16T19:13:19.513Z,96917.75
2023-03-16T19:15:46.049Z,96917.38
2023-03-16T19:18:12.496Z,96915.06
2023-03-16T19:20:38.884Z,96920.31
2023-03-16T19:23:05.252Z,96923.38
2023-03-16T19:25:31.982Z,96932.09
2023-03-16T19:27:58.486Z,96926.13
2023-03-16T19:30:24.962Z,96929.22
2023-03-16T19:32:51.349Z,96932.13
2023-03-16T19:35:19.827Z,96938.16
2023-03-16T19:37:46.216Z,96945.41
2023-03-16T19:40:12.606Z,96935.28
2023-03-16T19:42:38.967Z,96949.78
2023-03-16T19:45:05.433Z,96947.75
2023-03-16T19:47:31.837Z,96946.31
2023-03-16T19:49:58.230Z,96949.19
2023-03-16T19:52:24.603Z,96953.34
2023-03-16T19:54:51.034Z,96953.16
2023-03-16T19:57:17.444Z,96948.63
2023-03-16T19:59:43.770Z,96937.88
2023-03-16T20:02:10.149Z,96946.56
2023-03-16T20:04:36.658Z,96938.06
2023-03-16T20:07:04.238Z,96942.88
2023-03-16T20:09:30.658Z,96934.38
2023-03-16T20:11:57.059Z,96938.53
2023-03-16T20:14:23.530Z,96937.91
2023-03-16T20:16:50.069Z,96934.00
2023-03-16T20:19:16.589Z,96935.44
2023-03-16T20:21:42.991Z,96942.06
2023-03-16T20:24:09.380Z,96927.19
2023-03-16T20:26:35.720Z,96925.78
2023-03-16T20:29:02.208Z,96924.13
2023-03-16T20:31:28.613Z,96918.16
2023-03-16T20:33:54.974Z,96920.84
2023-03-16T20:36:21.360Z,96917.72
2023-03-16T20:38:47.703Z,96935.09
2023-03-16T20:41:14.186Z,96929.72
2023-03-16T20:43:40.596Z,96926.41
2023-03-16T20:46:07.087Z,96934.91
2023-03-16T20:48:33.669Z,96930.38
2023-03-16T20:51:00.138Z,96932.00
2023-03-16T20:53:26.674Z,96934.69
2023-03-16T20:55:53.067Z,96934.69
2023-03-16T20:58:19.442Z,96932.44
2023-03-16T21:00:45.841Z,96944.63
2023-03-16T21:03:12.286Z,96952.06
2023-03-16T21:05:38.688Z,96951.66
2023-03-16T21:08:05.070Z,96942.38
2023-03-16T21:10:31.652Z,96948.34
2023-03-16T21:12:58.129Z,96940.06
2023-03-16T21:15:24.515Z,96937.59
2023-03-16T21:17:50.944Z,96931.59
2023-03-16T21:20:17.374Z,96932.00
2023-03-16T21:22:43.746Z,96930.13
2023-03-16T21:25:10.194Z,96934.69
2023-03-16T21:27:38.596Z,96933.88
2023-03-16T21:30:04.988Z,96928.28
2023-03-16T21:32:31.463Z,96925.81
2023-03-16T21:34:57.914Z,96923.94
2023-03-16T21:37:24.342Z,96920.03
2023-03-16T21:39:50.756Z,96913.00
2023-03-16T21:42:17.150Z,96919.63
2023-03-16T21:44:43.616Z,96915.28
2023-03-16T21:47:09.973Z,96920.25
2023-03-16T21:49:36.397Z,96917.56
2023-03-16T21:52:02.761Z,96923.34
2023-03-16T21:54:29.150Z,96915.72
2023-03-16T21:56:55.622Z,96923.97
2023-03-16T21:59:23.780Z,96922.97
2023-03-16T22:02:01.068Z,96934.31
2023-03-16T22:04:27.856Z,96935.56
2023-03-16T22:06:54.332Z,96932.47
2023-03-16T22:09:20.756Z,96923.78
2023-03-16T22:11:47.140Z,96929.97
2023-03-16T22:14:13.525Z,96923.56
2023-03-16T22:16:39.971Z,96916.75
2023-03-16T22:19:06.414Z,96905.59
2023-03-16T22:21:32.996Z,96903.72
2023-03-16T22:23:59.456Z,96890.94
2023-03-16T22:26:27.269Z,96889.28
2023-03-16T22:28:53.651Z,96888.69
2023-03-16T22:31:20.107Z,96873.16
2023-03-16T22:33:46.548Z,96868.59
2023-03-16T22:36:12.960Z,96877.72
2023-03-16T22:38:39.365Z,96877.09
2023-03-16T22:41:05.830Z,96886.38
2023-03-16T22:43:32.187Z,96895.06
2023-03-16T22:45:58.586Z,96889.91
2023-03-16T22:48:25.075Z,96897.97
2023-03-16T22:50:51.406Z,96903.56
2023-03-16T22:53:17.792Z,96894.69
2023-03-16T22:55:44.173Z,96893.66
2023-03-16T22:58:10.537Z,96902.34
2023-03-16T23:00:36.853Z,96907.88
2023-03-16T23:03:03.177Z,96898.41
2023-03-16T23:05:29.772Z,96898.00
2023-03-16T23:07:56.378Z,96905.03
2023-03-16T23:10:22.760Z,96902.72
2023-03-16T23:12:49.150Z,96905.81
2023-03-16T23:15:15.578Z,96911.19
2023-03-16T23:17:42.129Z,96901.69
2023-03-16T23:20:08.552Z,96904.38
2023-03-16T23:22:34.957Z,96901.69
2023-03-16T23:25:01.379Z,96905.00
2023-03-16T23:27:28.981Z,96906.25
2023-03-16T23:29:55.377Z,96901.50
2023-03-16T23:32:21.754Z,96896.31
2023-03-16T23:34:48.147Z,96897.56
2023-03-16T23:37:14.578Z,96892.41
2023-03-16T23:39:40.985Z,96900.47
2023-03-16T23:42:07.358Z,96902.31
2023-03-16T23:44:33.749Z,96893.44
2023-03-16T23:47:00.164Z,96896.31
2023-03-16T23:49:26.528Z,96895.50
2023-03-16T23:51:52.880Z,96899.63
2023-03-16T23:54:19.281Z,96903.34
2023-03-16T23:56:45.685Z,96896.56
2023-03-16T23:59:12.101Z,96902.94
